sensor_id;sensor_type;location;lat;lon;timestamp;temperature;humidity
3037;DHT22;1528;52.550;13.408;2024-01-15T00:00:21;3.50;44.70
3037;DHT22;1528;52.550;13.408;2024-01-15T00:03:08;3.50;44.70
3037;DHT22;1528;52.550;13.408;2024-01-15T00:05:54;3.50;44.60
3037;DHT22;1528;52.550;13.408;2024-01-15T00:08:40;3.50;44.80
3037;DHT22;1528;52.550;13.408;2024-01-15T00:11:25;3.50;45.40
3037;DHT22;1528;52.550;13.408;2024-01-15T00:14:11;3.50;45.30
3037;DHT22;1528;52.550;13.408;2024-01-15T00:16:58;3.40;45.30
3037;DHT22;1528;52.550;13.408;2024-01-15T00:19:45;3.40;45.40
3037;DHT22;1528;52.550;13.408;2024-01-15T00:22:30;3.40;45.20
3037;DHT22;1528;52.550;13.408;2024-01-15T00:25:16;3.40;45.50
3037;DHT22;1528;52.550;13.408;2024-01-15T00:28:02;3.40;45.50
3037;DHT22;1528;52.550;13.408;2024-01-15T00:30:47;3.40;45.60
3037;DHT22;1528;52.550;13.408;2024-01-15T00:33:33;3.40;45.30
3037;DHT22;1528;52.550;13.408;2024-01-15T00:36:20;3.40;45.30
3037;DHT22;1528;52.550;13.408;2024-01-15T00:39:05;3.40;44.90
3037;DHT22;1528;52.550;13.408;2024-01-15T00:41:51;3.40;45.10
3037;DHT22;1528;52.550;13.408;2024-01-15T00:44:36;3.40;45.00
3037;DHT22;1528;52.550;13.408;2024-01-15T00:47:22;3.50;44.90
3037;DHT22;1528;52.550;13.408;2024-01-15T00:50:10;3.50;45.00
3037;DHT22;1528;52.550;13.408;2024-01-15T00:52:57;3.40;44.90
3037;DHT22;1528;52.550;13.408;2024-01-15T00:55:42;3.40;45.00
3037;DHT22;1528;52.550;13.408;2024-01-15T00:58:28;3.40;44.90
3037;DHT22;1528;52.550;13.408;2024-01-15T01:01:13;3.40;45.10
3037;DHT22;1528;52.550;13.408;2024-01-15T01:03:59;3.40;45.00
3037;DHT22;1528;52.550;13.408;2024-01-15T01:06:45;3.30;45.00
3037;DHT22;1528;52.550;13.408;2024-01-15T01:09:32;3.30;45.70
3037;DHT22;1528;52.550;13.408;2024-01-15T01:12:17;3.30;46.00
3037;DHT22;1528;52.550;13.408;2024-01-15T01:15:03;3.20;46.50
3037;DHT22;1528;52.550;13.408;2024-01-15T01:17:49;3.10;47.20
3037;DHT22;1528;52.550;13.408;2024-01-15T01:20:34;3.00;47.60
3037;DHT22;1528;52.550;13.408;2024-01-15T01:23:20;3.00;48.30
3037;DHT22;1528;52.550;13.408;2024-01-15T01:26:07;3.00;48.60
3037;DHT22;1528;52.550;13.408;2024-01-15T01:28:52;2.90;48.80
3037;DHT22;1528;52.550;13.408;2024-01-15T01:31:42;2.90;48.80
3037;DHT22;1528;52.550;13.408;2024-01-15T01:34:27;2.90;49.00
3037;DHT22;1528;52.550;13.408;2024-01-15T01:37:14;2.90;49.50
3037;DHT22;1528;52.550;13.408;2024-01-15T01:40:00;2.90;48.80
3037;DHT22;1528;52.550;13.408;2024-01-15T01:42:47;2.90;49.00
3037;DHT22;1528;52.550;13.408;2024-01-15T01:45:33;2.90;49.00
3037;DHT22;1528;52.550;13.408;2024-01-15T01:48:19;2.90;49.20
3037;DHT22;1528;52.550;13.408;2024-01-15T01:51:04;2.90;49.30
3037;DHT22;1528;52.550;13.408;2024-01-15T01:53:50;2.90;49.20
3037;DHT22;1528;52.550;13.408;2024-01-15T01:56:36;2.90;49.40
3037;DHT22;1528;52.550;13.408;2024-01-15T01:59:23;2.90;49.60
3037;DHT22;1528;52.550;13.408;2024-01-15T02:02:08;2.90;49.70
3037;DHT22;1528;52.550;13.408;2024-01-15T02:04:54;2.90;49.60
3037;DHT22;1528;52.550;13.408;2024-01-15T02:07:41;2.90;49.10
3037;DHT22;1528;52.550;13.408;2024-01-15T02:10:26;2.90;48.90
3037;DHT22;1528;52.550;13.408;2024-01-15T02:13:12;2.90;48.70
3037;DHT22;1528;52.550;13.408;2024-01-15T02:15:59;2.90;48.80
3037;DHT22;1528;52.550;13.408;2024-01-15T02:18:46;2.90;48.70
3037;DHT22;1528;52.550;13.408;2024-01-15T02:21:31;2.80;48.40
3037;DHT22;1528;52.550;13.408;2024-01-15T02:24:18;2.80;48.40
3037;DHT22;1528;52.550;13.408;2024-01-15T02:27:04;2.80;48.00
3037;DHT22;1528;52.550;13.408;2024-01-15T02:29:50;2.80;47.50
3037;DHT22;1528;52.550;13.408;2024-01-15T02:32:36;2.90;47.70
3037;DHT22;1528;52.550;13.408;2024-01-15T02:35:22;2.90;47.20
3037;DHT22;1528;52.550;13.408;2024-01-15T02:38:08;2.90;46.40
3037;DHT22;1528;52.550;13.408;2024-01-15T02:40:55;2.90;46.20
3037;DHT22;1528;52.550;13.408;2024-01-15T02:43:40;2.90;45.90
3037;DHT22;1528;52.550;13.408;2024-01-15T02:46:26;2.90;45.60
3037;DHT22;1528;52.550;13.408;2024-01-15T02:49:12;2.90;45.60
3037;DHT22;1528;52.550;13.408;2024-01-15T02:51:57;2.90;46.10
3037;DHT22;1528;52.550;13.408;2024-01-15T02:54:43;2.90;44.90
3037;DHT22;1528;52.550;13.408;2024-01-15T02:57:30;2.90;45.70
3037;DHT22;1528;52.550;13.408;2024-01-15T03:00:16;2.90;44.90
3037;DHT22;1528;52.550;13.408;2024-01-15T03:03:01;2.90;44.70
3037;DHT22;1528;52.550;13.408;2024-01-15T03:05:47;2.90;44.70
3037;DHT22;1528;52.550;13.408;2024-01-15T03:08:33;2.90;44.40
3037;DHT22;1528;52.550;13.408;2024-01-15T03:11:19;2.90;43.70
3037;DHT22;1528;52.550;13.408;2024-01-15T03:14:06;2.90;44.20
3037;DHT22;1528;52.550;13.408;2024-01-15T03:16:52;3.00;44.00
3037;DHT22;1528;52.550;13.408;2024-01-15T03:19:37;3.00;43.70
3037;DHT22;1528;52.550;13.408;2024-01-15T03:22:23;3.00;43.10
3037;DHT22;1528;52.550;13.408;2024-01-15T03:25:09;3.00;43.40
3037;DHT22;1528;52.550;13.408;2024-01-15T03:27:54;3.10;43.10
3037;DHT22;1528;52.550;13.408;2024-01-15T03:30:41;3.10;43.00
3037;DHT22;1528;52.550;13.408;2024-01-15T03:33:27;3.00;42.40
3037;DHT22;1528;52.550;13.408;2024-01-15T03:36:12;3.10;43.00
3037;DHT22;1528;52.550;13.408;2024-01-15T03:38:57;3.00;42.70
3037;DHT22;1528;52.550;13.408;2024-01-15T03:41:43;3.00;42.80
3037;DHT22;1528;52.550;13.408;2024-01-15T03:44:29;3.00;42.70
3037;DHT22;1528;52.550;13.408;2024-01-15T03:47:16;3.00;42.70
3037;DHT22;1528;52.550;13.408;2024-01-15T03:50:01;3.00;42.30
3037;DHT22;1528;52.550;13.408;2024-01-15T03:52:46;3.10;42.70
3037;DHT22;1528;52.550;13.408;2024-01-15T03:55:32;3.00;41.90
3037;DHT22;1528;52.550;13.408;2024-01-15T03:58:18;3.10;42.30
3037;DHT22;1528;52.550;13.408;2024-01-15T04:01:06;3.00;41.90
3037;DHT22;1528;52.550;13.408;2024-01-15T04:03:54;3.10;42.00
3037;DHT22;1528;52.550;13.408;2024-01-15T04:06:40;3.10;42.50
3037;DHT22;1528;52.550;13.408;2024-01-15T04:09:25;3.10;41.80
3037;DHT22;1528;52.550;13.408;2024-01-15T04:12:11;3.20;41.90
3037;DHT22;1528;52.550;13.408;2024-01-15T04:14:57;3.10;42.00
3037;DHT22;1528;52.550;13.408;2024-01-15T04:17:42;3.10;42.00
3037;DHT22;1528;52.550;13.408;2024-01-15T04:20:29;3.10;42.10
3037;DHT22;1528;52.550;13.408;2024-01-15T04:23:14;3.20;41.80
3037;DHT22;1528;52.550;13.408;2024-01-15T04:26:00;3.10;41.50
3037;DHT22;1528;52.550;13.408;2024-01-15T04:28:46;3.10;41.60
3037;DHT22;1528;52.550;13.408;2024-01-15T04:31:31;3.10;41.30
3037;DHT22;1528;52.550;13.408;2024-01-15T04:34:17;3.10;41.40
3037;DHT22;1528;52.550;13.408;2024-01-15T04:37:04;3.10;41.40
3037;DHT22;1528;52.550;13.408;2024-01-15T04:39:49;3.20;41.40
3037;DHT22;1528;52.550;13.408;2024-01-15T04:42:37;3.10;41.30
3037;DHT22;1528;52.550;13.408;2024-01-15T04:45:22;3.10;41.10
3037;DHT22;1528;52.550;13.408;2024-01-15T04:48:12;3.10;41.30
3037;DHT22;1528;52.550;13.408;2024-01-15T04:50:58;3.10;41.20
3037;DHT22;1528;52.550;13.408;2024-01-15T04:53:45;3.10;41.10
3037;DHT22;1528;52.550;13.408;2024-01-15T04:56:30;3.20;41.10
3037;DHT22;1528;52.550;13.408;2024-01-15T04:59:16;3.20;40.90
3037;DHT22;1528;52.550;13.408;2024-01-15T05:02:02;3.20;40.60
3037;DHT22;1528;52.550;13.408;2024-01-15T05:04:48;3.20;40.50
3037;DHT22;1528;52.550;13.408;2024-01-15T05:07:33;3.20;40.20
3037;DHT22;1528;52.550;13.408;2024-01-15T05:10:20;3.20;40.40
3037;DHT22;1528;52.550;13.408;2024-01-15T05:13:05;3.20;39.90
3037;DHT22;1528;52.550;13.408;2024-01-15T05:15:51;3.20;39.90
3037;DHT22;1528;52.550;13.408;2024-01-15T05:18:37;3.20;40.10
3037;DHT22;1528;52.550;13.408;2024-01-15T05:21:22;3.20;40.40
3037;DHT22;1528;52.550;13.408;2024-01-15T05:24:08;3.20;40.40
3037;DHT22;1528;52.550;13.408;2024-01-15T05:26:55;3.30;40.70
3037;DHT22;1528;52.550;13.408;2024-01-15T05:29:40;3.30;41.80
3037;DHT22;1528;52.550;13.408;2024-01-15T05:32:26;3.30;41.50
3037;DHT22;1528;52.550;13.408;2024-01-15T05:35:12;3.30;41.90
3037;DHT22;1528;52.550;13.408;2024-01-15T05:37:57;3.20;41.20
3037;DHT22;1528;52.550;13.408;2024-01-15T05:40:43;3.20;41.20
3037;DHT22;1528;52.550;13.408;2024-01-15T05:43:30;3.20;41.30
3037;DHT22;1528;52.550;13.408;2024-01-15T05:46:16;3.30;41.00
3037;DHT22;1528;52.550;13.408;2024-01-15T05:49:01;3.30;41.00
3037;DHT22;1528;52.550;13.408;2024-01-15T05:51:50;3.30;41.30
3037;DHT22;1528;52.550;13.408;2024-01-15T05:54:35;3.40;41.30
3037;DHT22;1528;52.550;13.408;2024-01-15T05:57:21;3.40;40.80
3037;DHT22;1528;52.550;13.408;2024-01-15T06:00:09;3.40;41.00
3037;DHT22;1528;52.550;13.408;2024-01-15T06:02:55;3.40;41.40
3037;DHT22;1528;52.550;13.408;2024-01-15T06:05:41;3.40;42.60
3037;DHT22;1528;52.550;13.408;2024-01-15T06:08:26;3.30;42.20
3037;DHT22;1528;52.550;13.408;2024-01-15T06:11:11;3.30;41.90
3037;DHT22;1528;52.550;13.408;2024-01-15T06:13:57;3.30;41.80
3037;DHT22;1528;52.550;13.408;2024-01-15T06:16:44;3.30;41.70
3037;DHT22;1528;52.550;13.408;2024-01-15T06:19:30;3.30;41.60
3037;DHT22;1528;52.550;13.408;2024-01-15T06:22:16;3.30;41.60
3037;DHT22;1528;52.550;13.408;2024-01-15T06:25:01;3.30;40.90
3037;DHT22;1528;52.550;13.408;2024-01-15T06:27:47;3.30;40.80
3037;DHT22;1528;52.550;13.408;2024-01-15T06:30:32;3.30;41.00
3037;DHT22;1528;52.550;13.408;2024-01-15T06:33:19;3.40;40.30
3037;DHT22;1528;52.550;13.408;2024-01-15T06:36:06;3.40;40.00
3037;DHT22;1528;52.550;13.408;2024-01-15T06:38:51;3.40;40.20
3037;DHT22;1528;52.550;13.408;2024-01-15T06:41:37;3.40;40.60
3037;DHT22;1528;52.550;13.408;2024-01-15T06:44:27;3.40;40.90
3037;DHT22;1528;52.550;13.408;2024-01-15T06:47:13;3.40;41.20
3037;DHT22;1528;52.550;13.408;2024-01-15T06:50:00;3.30;41.40
3037;DHT22;1528;52.550;13.408;2024-01-15T06:52:45;3.30;41.60
3037;DHT22;1528;52.550;13.408;2024-01-15T06:55:31;3.30;41.40
3037;DHT22;1528;52.550;13.408;2024-01-15T06:58:17;3.30;41.90
3037;DHT22;1528;52.550;13.408;2024-01-15T07:01:02;3.40;41.60
3037;DHT22;1528;52.550;13.408;2024-01-15T07:03:48;3.40;40.90
3037;DHT22;1528;52.550;13.408;2024-01-15T07:06:35;3.50;40.90
3037;DHT22;1528;52.550;13.408;2024-01-15T07:09:20;3.40;40.40
3037;DHT22;1528;52.550;13.408;2024-01-15T07:12:06;3.50;41.30
3037;DHT22;1528;52.550;13.408;2024-01-15T07:14:52;3.40;40.60
3037;DHT22;1528;52.550;13.408;2024-01-15T07:17:38;3.40;40.20
3037;DHT22;1528;52.550;13.408;2024-01-15T07:20:24;3.40;40.60
3037;DHT22;1528;52.550;13.408;2024-01-15T07:23:11;3.50;40.60
3037;DHT22;1528;52.550;13.408;2024-01-15T07:25:56;3.50;41.20
3037;DHT22;1528;52.550;13.408;2024-01-15T07:28:42;3.50;40.10
3037;DHT22;1528;52.550;13.408;2024-01-15T07:31:27;3.60;40.20
3037;DHT22;1528;52.550;13.408;2024-01-15T07:34:13;3.60;39.70
3037;DHT22;1528;52.550;13.408;2024-01-15T07:36:59;3.70;39.50
3037;DHT22;1528;52.550;13.408;2024-01-15T07:39:45;3.60;39.00
3037;DHT22;1528;52.550;13.408;2024-01-15T07:42:31;3.60;39.50
3037;DHT22;1528;52.550;13.408;2024-01-15T07:45:17;3.70;39.60
3037;DHT22;1528;52.550;13.408;2024-01-15T07:48:03;3.70;39.00
3037;DHT22;1528;52.550;13.408;2024-01-15T07:50:49;3.70;38.60
3037;DHT22;1528;52.550;13.408;2024-01-15T07:53:35;3.70;38.60
3037;DHT22;1528;52.550;13.408;2024-01-15T07:56:22;3.70;38.40
3037;DHT22;1528;52.550;13.408;2024-01-15T07:59:07;3.70;39.90
3037;DHT22;1528;52.550;13.408;2024-01-15T08:01:53;3.70;40.10
3037;DHT22;1528;52.550;13.408;2024-01-15T08:04:39;3.70;40.00
3037;DHT22;1528;52.550;13.408;2024-01-15T08:07:24;3.70;39.50
3037;DHT22;1528;52.550;13.408;2024-01-15T08:10:10;3.70;39.10
3037;DHT22;1528;52.550;13.408;2024-01-15T08:12:59;3.70;39.10
3037;DHT22;1528;52.550;13.408;2024-01-15T08:15:44;3.70;39.20
3037;DHT22;1528;52.550;13.408;2024-01-15T08:18:30;3.70;39.50
3037;DHT22;1528;52.550;13.408;2024-01-15T08:21:16;3.70;39.10
3037;DHT22;1528;52.550;13.408;2024-01-15T08:24:02;3.70;38.90
3037;DHT22;1528;52.550;13.408;2024-01-15T08:26:47;3.70;38.80
3037;DHT22;1528;52.550;13.408;2024-01-15T08:29:34;3.80;39.30
3037;DHT22;1528;52.550;13.408;2024-01-15T08:32:20;3.80;39.40
3037;DHT22;1528;52.550;13.408;2024-01-15T08:35:06;3.90;39.90
3037;DHT22;1528;52.550;13.408;2024-01-15T08:37:52;3.90;38.50
3037;DHT22;1528;52.550;13.408;2024-01-15T08:40:37;3.90;38.40
3037;DHT22;1528;52.550;13.408;2024-01-15T08:43:23;4.00;38.30
3037;DHT22;1528;52.550;13.408;2024-01-15T08:46:10;3.90;38.10
3037;DHT22;1528;52.550;13.408;2024-01-15T08:48:56;3.90;38.30
3037;DHT22;1528;52.550;13.408;2024-01-15T08:51:41;3.90;38.20
3037;DHT22;1528;52.550;13.408;2024-01-15T08:54:27;3.90;38.10
3037;DHT22;1528;52.550;13.408;2024-01-15T08:57:13;3.90;38.00
3037;DHT22;1528;52.550;13.408;2024-01-15T08:59:59;3.90;38.20
3037;DHT22;1528;52.550;13.408;2024-01-15T09:02:46;3.90;38.30
3037;DHT22;1528;52.550;13.408;2024-01-15T09:05:32;3.90;38.10
3037;DHT22;1528;52.550;13.408;2024-01-15T09:08:17;3.90;38.20
3037;DHT22;1528;52.550;13.408;2024-01-15T09:11:03;3.90;38.00
3037;DHT22;1528;52.550;13.408;2024-01-15T09:13:48;3.80;38.10
3037;DHT22;1528;52.550;13.408;2024-01-15T09:16:34;3.90;38.70
3037;DHT22;1528;52.550;13.408;2024-01-15T09:19:21;3.90;38.60
3037;DHT22;1528;52.550;13.408;2024-01-15T09:22:06;3.90;39.60
3037;DHT22;1528;52.550;13.408;2024-01-15T09:24:52;3.90;39.60
3037;DHT22;1528;52.550;13.408;2024-01-15T09:27:37;4.10;38.90
3037;DHT22;1528;52.550;13.408;2024-01-15T09:30:23;4.00;38.30
3037;DHT22;1528;52.550;13.408;2024-01-15T09:33:09;4.00;38.50
3037;DHT22;1528;52.550;13.408;2024-01-15T09:35:56;4.10;38.10
3037;DHT22;1528;52.550;13.408;2024-01-15T09:38:41;4.20;37.80
3037;DHT22;1528;52.550;13.408;2024-01-15T09:41:27;4.20;37.60
3037;DHT22;1528;52.550;13.408;2024-01-15T09:44:12;4.30;37.80
3037;DHT22;1528;52.550;13.408;2024-01-15T09:46:58;4.40;37.40
3037;DHT22;1528;52.550;13.408;2024-01-15T09:49:44;4.40;36.70
3037;DHT22;1528;52.550;13.408;2024-01-15T09:52:31;4.40;36.50
3037;DHT22;1528;52.550;13.408;2024-01-15T09:55:17;4.50;36.50
3037;DHT22;1528;52.550;13.408;2024-01-15T09:58:03;4.60;36.50
3037;DHT22;1528;52.550;13.408;2024-01-15T10:00:49;4.60;36.20
3037;DHT22;1528;52.550;13.408;2024-01-15T10:03:35;4.60;36.40
3037;DHT22;1528;52.550;13.408;2024-01-15T10:06:22;4.50;36.30
3037;DHT22;1528;52.550;13.408;2024-01-15T10:09:09;4.50;36.30
3037;DHT22;1528;52.550;13.408;2024-01-15T10:11:55;4.50;36.30
3037;DHT22;1528;52.550;13.408;2024-01-15T10:14:42;4.40;36.30
3037;DHT22;1528;52.550;13.408;2024-01-15T10:17:28;4.60;36.70
3037;DHT22;1528;52.550;13.408;2024-01-15T10:20:15;4.50;36.10
3037;DHT22;1528;52.550;13.408;2024-01-15T10:23:00;4.50;36.10
3037;DHT22;1528;52.550;13.408;2024-01-15T10:25:48;4.50;36.80
3037;DHT22;1528;52.550;13.408;2024-01-15T10:28:34;4.50;36.10
3037;DHT22;1528;52.550;13.408;2024-01-15T10:31:20;4.50;36.10
3037;DHT22;1528;52.550;13.408;2024-01-15T10:34:12;4.50;36.10
3037;DHT22;1528;52.550;13.408;2024-01-15T10:36:59;4.50;36.20
3037;DHT22;1528;52.550;13.408;2024-01-15T10:39:47;4.50;36.30
3037;DHT22;1528;52.550;13.408;2024-01-15T10:42:33;4.60;36.20
3037;DHT22;1528;52.550;13.408;2024-01-15T10:45:19;4.60;36.00
3037;DHT22;1528;52.550;13.408;2024-01-15T10:48:05;4.50;35.80
3037;DHT22;1528;52.550;13.408;2024-01-15T10:50:51;4.60;36.10
3037;DHT22;1528;52.550;13.408;2024-01-15T10:53:38;4.60;36.10
3037;DHT22;1528;52.550;13.408;2024-01-15T10:56:25;4.60;35.60
3037;DHT22;1528;52.550;13.408;2024-01-15T10:59:14;4.60;35.30
3037;DHT22;1528;52.550;13.408;2024-01-15T11:02:00;4.60;35.50
3037;DHT22;1528;52.550;13.408;2024-01-15T11:04:45;4.60;35.80
3037;DHT22;1528;52.550;13.408;2024-01-15T11:07:31;4.70;35.50
3037;DHT22;1528;52.550;13.408;2024-01-15T11:10:39;4.80;35.00
3037;DHT22;1528;52.550;13.408;2024-01-15T11:13:40;4.90;35.20
3037;DHT22;1528;52.550;13.408;2024-01-15T11:16:55;5.00;34.50
3037;DHT22;1528;52.550;13.408;2024-01-15T11:19:45;4.90;34.50
3037;DHT22;1528;52.550;13.408;2024-01-15T11:22:49;4.70;34.10
3037;DHT22;1528;52.550;13.408;2024-01-15T11:25:35;4.70;35.00
3037;DHT22;1528;52.550;13.408;2024-01-15T11:28:46;4.70;34.90
3037;DHT22;1528;52.550;13.408;2024-01-15T11:31:59;4.80;35.50
3037;DHT22;1528;52.550;13.408;2024-01-15T11:34:56;4.80;35.10
3037;DHT22;1528;52.550;13.408;2024-01-15T11:37:58;4.90;35.40
3037;DHT22;1528;52.550;13.408;2024-01-15T11:40:45;4.90;35.60
3037;DHT22;1528;52.550;13.408;2024-01-15T11:43:32;4.80;35.90
3037;DHT22;1528;52.550;13.408;2024-01-15T11:46:18;4.80;36.10
3037;DHT22;1528;52.550;13.408;2024-01-15T11:49:08;4.60;36.40
3037;DHT22;1528;52.550;13.408;2024-01-15T11:51:58;4.60;37.00
3037;DHT22;1528;52.550;13.408;2024-01-15T11:54:51;4.40;38.90
3037;DHT22;1528;52.550;13.408;2024-01-15T11:57:45;4.20;41.40
3037;DHT22;1528;52.550;13.408;2024-01-15T12:00:30;4.00;43.00
3037;DHT22;1528;52.550;13.408;2024-01-15T12:03:16;3.80;43.90
3037;DHT22;1528;52.550;13.408;2024-01-15T12:06:05;3.80;44.80
3037;DHT22;1528;52.550;13.408;2024-01-15T12:08:51;3.70;44.70
3037;DHT22;1528;52.550;13.408;2024-01-15T12:11:54;3.70;44.30
3037;DHT22;1528;52.550;13.408;2024-01-15T12:14:41;3.70;44.30
3037;DHT22;1528;52.550;13.408;2024-01-15T12:17:26;3.70;44.00
3037;DHT22;1528;52.550;13.408;2024-01-15T12:20:12;3.70;43.80
3037;DHT22;1528;52.550;13.408;2024-01-15T12:22:59;3.80;43.70
3037;DHT22;1528;52.550;13.408;2024-01-15T12:25:44;3.70;43.90
3037;DHT22;1528;52.550;13.408;2024-01-15T12:28:31;3.80;43.20
3037;DHT22;1528;52.550;13.408;2024-01-15T12:31:16;3.80;43.20
3037;DHT22;1528;52.550;13.408;2024-01-15T12:34:02;3.80;43.20
3037;DHT22;1528;52.550;13.408;2024-01-15T12:36:48;3.80;43.80
3037;DHT22;1528;52.550;13.408;2024-01-15T12:39:35;3.80;42.80
3037;DHT22;1528;52.550;13.408;2024-01-15T12:42:21;3.80;43.20
3037;DHT22;1528;52.550;13.408;2024-01-15T12:45:08;3.80;43.50
3037;DHT22;1528;52.550;13.408;2024-01-15T12:47:54;3.80;44.00
3037;DHT22;1528;52.550;13.408;2024-01-15T12:50:39;3.80;44.30
3037;DHT22;1528;52.550;13.408;2024-01-15T12:53:28;3.80;44.20
3037;DHT22;1528;52.550;13.408;2024-01-15T12:56:15;3.80;43.90
3037;DHT22;1528;52.550;13.408;2024-01-15T12:59:00;3.70;43.90
3037;DHT22;1528;52.550;13.408;2024-01-15T13:01:46;3.80;43.60
3037;DHT22;1528;52.550;13.408;2024-01-15T13:04:32;3.80;43.70
3037;DHT22;1528;52.550;13.408;2024-01-15T13:07:17;3.90;43.40
3037;DHT22;1528;52.550;13.408;2024-01-15T13:10:04;4.00;43.40
3037;DHT22;1528;52.550;13.408;2024-01-15T13:12:51;4.00;43.20
3037;DHT22;1528;52.550;13.408;2024-01-15T13:15:36;4.10;42.80
3037;DHT22;1528;52.550;13.408;2024-01-15T13:18:22;4.10;42.50
3037;DHT22;1528;52.550;13.408;2024-01-15T13:21:07;4.10;42.20
3037;DHT22;1528;52.550;13.408;2024-01-15T13:23:53;4.10;42.80
3037;DHT22;1528;52.550;13.408;2024-01-15T13:26:38;4.10;42.10
3037;DHT22;1528;52.550;13.408;2024-01-15T13:29:25;4.10;42.00
3037;DHT22;1528;52.550;13.408;2024-01-15T13:32:13;4.10;41.90
3037;DHT22;1528;52.550;13.408;2024-01-15T13:35:02;4.10;42.00
3037;DHT22;1528;52.550;13.408;2024-01-15T13:37:49;4.10;41.60
3037;DHT22;1528;52.550;13.408;2024-01-15T13:40:35;4.30;41.70
3037;DHT22;1528;52.550;13.408;2024-01-15T13:43:20;4.10;42.00
3037;DHT22;1528;52.550;13.408;2024-01-15T13:46:07;4.20;42.00
3037;DHT22;1528;52.550;13.408;2024-01-15T13:48:53;4.20;42.20
3037;DHT22;1528;52.550;13.408;2024-01-15T13:51:39;4.20;42.20
3037;DHT22;1528;52.550;13.408;2024-01-15T13:54:25;4.20;42.30
3037;DHT22;1528;52.550;13.408;2024-01-15T13:57:11;4.20;41.60
3037;DHT22;1528;52.550;13.408;2024-01-15T13:59:57;4.20;41.30
3037;DHT22;1528;52.550;13.408;2024-01-15T14:02:44;4.20;41.10
3037;DHT22;1528;52.550;13.408;2024-01-15T14:05:30;4.20;41.20
3037;DHT22;1528;52.550;13.408;2024-01-15T14:08:15;4.20;40.70
3037;DHT22;1528;52.550;13.408;2024-01-15T14:11:01;4.20;40.60
3037;DHT22;1528;52.550;13.408;2024-01-15T14:13:46;4.20;40.80
3037;DHT22;1528;52.550;13.408;2024-01-15T14:16:32;4.20;40.50
3037;DHT22;1528;52.550;13.408;2024-01-15T14:19:19;4.20;40.40
3037;DHT22;1528;52.550;13.408;2024-01-15T14:22:05;4.40;40.40
3037;DHT22;1528;52.550;13.408;2024-01-15T14:24:51;4.40;40.30
3037;DHT22;1528;52.550;13.408;2024-01-15T14:27:38;4.30;39.50
3037;DHT22;1528;52.550;13.408;2024-01-15T14:30:24;4.30;38.90
3037;DHT22;1528;52.550;13.408;2024-01-15T14:33:09;4.20;38.50
3037;DHT22;1528;52.550;13.408;2024-01-15T14:35:56;4.20;39.30
3037;DHT22;1528;52.550;13.408;2024-01-15T14:38:41;4.20;39.00
3037;DHT22;1528;52.550;13.408;2024-01-15T14:41:27;4.30;39.30
3037;DHT22;1528;52.550;13.408;2024-01-15T14:44:13;4.10;38.30
3037;DHT22;1528;52.550;13.408;2024-01-15T14:46:58;4.10;39.50
3037;DHT22;1528;52.550;13.408;2024-01-15T14:49:44;4.00;38.20
3037;DHT22;1528;52.550;13.408;2024-01-15T14:52:31;4.00;38.10
3037;DHT22;1528;52.550;13.408;2024-01-15T14:55:17;4.00;38.20
3037;DHT22;1528;52.550;13.408;2024-01-15T14:58:03;4.00;38.60
3037;DHT22;1528;52.550;13.408;2024-01-15T15:00:48;4.00;39.00
3037;DHT22;1528;52.550;13.408;2024-01-15T15:03:34;3.90;38.60
3037;DHT22;1528;52.550;13.408;2024-01-15T15:06:20;3.90;38.40
3037;DHT22;1528;52.550;13.408;2024-01-15T15:09:07;3.90;39.20
3037;DHT22;1528;52.550;13.408;2024-01-15T15:11:56;3.90;38.60
3037;DHT22;1528;52.550;13.408;2024-01-15T15:14:41;3.90;38.60
3037;DHT22;1528;52.550;13.408;2024-01-15T15:17:27;3.90;38.70
3037;DHT22;1528;52.550;13.408;2024-01-15T15:20:13;3.80;38.60
3037;DHT22;1528;52.550;13.408;2024-01-15T15:22:59;3.80;38.90
3037;DHT22;1528;52.550;13.408;2024-01-15T15:25:46;3.70;39.00
3037;DHT22;1528;52.550;13.408;2024-01-15T15:28:32;3.70;39.10
3037;DHT22;1528;52.550;13.408;2024-01-15T15:31:20;3.60;38.90
3037;DHT22;1528;52.550;13.408;2024-01-15T15:34:06;3.50;38.90
3037;DHT22;1528;52.550;13.408;2024-01-15T15:36:51;3.50;39.10
3037;DHT22;1528;52.550;13.408;2024-01-15T15:39:37;3.40;39.00
3037;DHT22;1528;52.550;13.408;2024-01-15T15:42:24;3.40;39.30
3037;DHT22;1528;52.550;13.408;2024-01-15T15:45:10;3.40;39.90
3037;DHT22;1528;52.550;13.408;2024-01-15T15:47:56;3.40;40.00
3037;DHT22;1528;52.550;13.408;2024-01-15T15:50:41;3.40;40.30
3037;DHT22;1528;52.550;13.408;2024-01-15T15:53:27;3.30;40.10
3037;DHT22;1528;52.550;13.408;2024-01-15T15:56:12;3.30;40.30
3037;DHT22;1528;52.550;13.408;2024-01-15T15:58:59;3.30;40.60
3037;DHT22;1528;52.550;13.408;2024-01-15T16:01:45;3.30;40.80
3037;DHT22;1528;52.550;13.408;2024-01-15T16:04:31;3.30;41.80
3037;DHT22;1528;52.550;13.408;2024-01-15T16:07:16;3.20;41.40
3037;DHT22;1528;52.550;13.408;2024-01-15T16:10:02;3.20;41.50
3037;DHT22;1528;52.550;13.408;2024-01-15T16:12:48;3.10;41.70
3037;DHT22;1528;52.550;13.408;2024-01-15T16:15:35;3.20;41.90
3037;DHT22;1528;52.550;13.408;2024-01-15T16:18:20;3.10;42.00
3037;DHT22;1528;52.550;13.408;2024-01-15T16:21:06;3.10;42.30
3037;DHT22;1528;52.550;13.408;2024-01-15T16:23:52;3.20;42.30
3037;DHT22;1528;52.550;13.408;2024-01-15T16:26:38;3.10;42.40
3037;DHT22;1528;52.550;13.408;2024-01-15T16:29:23;3.00;42.50
3037;DHT22;1528;52.550;13.408;2024-01-15T16:32:11;3.00;42.50
3037;DHT22;1528;52.550;13.408;2024-01-15T16:34:57;3.00;42.50
3037;DHT22;1528;52.550;13.408;2024-01-15T16:37:43;2.90;42.70
3037;DHT22;1528;52.550;13.408;2024-01-15T16:40:28;2.90;43.00
3037;DHT22;1528;52.550;13.408;2024-01-15T16:43:14;3.00;43.00
3037;DHT22;1528;52.550;13.408;2024-01-15T16:46:00;3.00;43.00
3037;DHT22;1528;52.550;13.408;2024-01-15T16:48:47;3.00;43.10
3037;DHT22;1528;52.550;13.408;2024-01-15T16:51:32;3.00;43.10
3037;DHT22;1528;52.550;13.408;2024-01-15T16:54:18;3.00;43.10
3037;DHT22;1528;52.550;13.408;2024-01-15T16:57:03;3.00;43.10
3037;DHT22;1528;52.550;13.408;2024-01-15T16:59:49;3.00;43.10
3037;DHT22;1528;52.550;13.408;2024-01-15T17:02:35;3.00;43.10
3037;DHT22;1528;52.550;13.408;2024-01-15T17:05:23;3.00;43.20
3037;DHT22;1528;52.550;13.408;2024-01-15T17:08:09;3.20;43.20
3037;DHT22;1528;52.550;13.408;2024-01-15T17:10:54;3.20;43.30
3037;DHT22;1528;52.550;13.408;2024-01-15T17:13:40;3.00;43.20
3037;DHT22;1528;52.550;13.408;2024-01-15T17:16:26;3.00;43.10
3037;DHT22;1528;52.550;13.408;2024-01-15T17:19:11;3.00;43.00
3037;DHT22;1528;52.550;13.408;2024-01-15T17:21:58;3.10;43.00
3037;DHT22;1528;52.550;13.408;2024-01-15T17:24:44;3.10;42.90
3037;DHT22;1528;52.550;13.408;2024-01-15T17:27:30;3.10;42.90
3037;DHT22;1528;52.550;13.408;2024-01-15T17:30:16;3.20;43.00
3037;DHT22;1528;52.550;13.408;2024-01-15T17:33:02;3.20;43.00
3037;DHT22;1528;52.550;13.408;2024-01-15T17:35:51;3.30;42.90
3037;DHT22;1528;52.550;13.408;2024-01-15T17:38:38;3.30;42.60
3037;DHT22;1528;52.550;13.408;2024-01-15T17:41:24;3.40;42.60
3037;DHT22;1528;52.550;13.408;2024-01-15T17:44:09;3.40;42.20
3037;DHT22;1528;52.550;13.408;2024-01-15T17:46:55;3.40;42.30
3037;DHT22;1528;52.550;13.408;2024-01-15T17:49:41;3.40;42.90
3037;DHT22;1528;52.550;13.408;2024-01-15T17:52:26;3.40;42.40
3037;DHT22;1528;52.550;13.408;2024-01-15T17:55:13;3.40;42.40
3037;DHT22;1528;52.550;13.408;2024-01-15T17:58:00;3.50;42.50
3037;DHT22;1528;52.550;13.408;2024-01-15T18:00:45;3.50;42.30
3037;DHT22;1528;52.550;13.408;2024-01-15T18:03:31;3.50;42.10
3037;DHT22;1528;52.550;13.408;2024-01-15T18:06:18;3.50;42.10